Terminal Aerodrome Forecast
Issued by NWS Medford, OR

Home | Current Version | Previous Version | Text Only | Print | Product List | Glossary On
Versions: 1 2 3 4 5 6 7 8 9 10 11 12 13 14 15 16
000
FTUS46 KMFR 201100 CCA
TAFMFR
TAF COR
KMFR 201143Z 2012/2112 VRB03KT P6SM SKC
     FM201300 VRB03KT P6SM BKN040
     FM201700 30006KT P6SM FEW050
     FM202000 32010G16KT P6SM SCT080
     FM210500 32003KT P6SM SKC=

USA.gov is the U.S. government's official web portal to all federal, state and local government web resources and services.